Time;durP1;ratioP1;P1;durP2;ratioP2;P2;SDS_P1;SDS_P2;PMS_P1;PMS_P2;Temp;Humidity;BMP_temperature;BMP_pressure;BME280_temperature;BME280_humidity;BME280_pressure;Samples;Min_cycle;Max_cycle;Signal;HPM_P1;HPM_P2
2022/03/04 00:01:04;;;;;;;15.53;11.10;;;7.50;54.90;;;;;;6124175;23;20459;-84
2022/03/04 00:03:34;;;;;;;15.70;10.23;;;7.40;54.80;;;;;;6121275;23;20444;-84
2022/03/04 00:06:03;;;;;;;14.20;10.67;;;7.40;55.10;;;;;;6137729;23;20403;-81
2022/03/04 00:08:30;;;;;;;11.40;9.83;;;7.40;55.30;;;;;;6086854;23;20427;-83
2022/03/04 00:11:10;;;;;;;13.10;10.13;;;7.30;55.80;;;;;;6110721;23;20987;-82
2022/03/04 00:13:45;;;;;;;15.73;10.70;;;7.20;55.40;;;;;;6139191;23;20479;-83
2022/03/04 00:16:16;;;;;;;16.17;11.30;;;7.10;55.40;;;;;;6112674;23;20421;-85
2022/03/04 00:19:07;;;;;;;13.00;10.27;;;7.10;55.70;;;;;;6117928;23;20515;-84
2022/03/04 00:21:53;;;;;;;16.17;11.37;;;7.10;55.70;;;;;;6123376;23;20422;-84
2022/03/04 00:24:27;;;;;;;16.10;11.77;;;7.00;55.80;;;;;;6111162;23;20457;-82
2022/03/04 00:27:06;;;;;;;13.60;10.37;;;7.00;55.80;;;;;;6122674;23;20420;-85
2022/03/04 00:29:38;;;;;;;16.30;10.87;;;6.90;56.10;;;;;;6124615;23;20519;-85
2022/03/04 00:32:05;;;;;;;14.00;10.30;;;6.80;55.90;;;;;;6125323;23;20403;-84
2022/03/04 00:34:42;;;;;;;13.43;10.37;;;6.90;55.90;;;;;;6127055;23;20419;-84
2022/03/04 00:37:18;;;;;;;14.27;11.30;;;7.10;56.20;;;;;;6128276;23;20418;-82
2022/03/04 00:39:59;;;;;;;13.90;10.50;;;7.10;56.10;;;;;;6116238;23;20423;-83
2022/03/04 00:42:34;;;;;;;14.20;10.73;;;7.10;56.00;;;;;;6134738;23;20395;-83
2022/03/04 00:45:01;;;;;;;12.13;9.97;;;7.00;56.00;;;;;;6118776;23;20444;-82
2022/03/04 00:47:36;;;;;;;18.63;12.03;;;6.90;56.30;;;;;;6109001;23;20403;-84
2022/03/04 00:50:29;;;;;;;16.07;11.10;;;7.00;56.50;;;;;;6134790;23;20891;-84
2022/03/04 00:53:26;;;;;;;16.00;11.40;;;6.80;56.40;;;;;;6105161;23;21204;-82
2022/03/04 00:56:06;;;;;;;18.30;11.70;;;6.70;56.80;;;;;;6126051;23;20418;-81
2022/03/04 00:58:39;;;;;;;19.27;12.30;;;7.00;57.00;;;;;;6124176;23;20474;-84
2022/03/04 01:01:16;;;;;;;17.27;11.10;;;7.00;57.00;;;;;;6123550;23;20903;-82
2022/03/04 01:03:43;;;;;;;15.53;11.30;;;6.80;57.00;;;;;;6128352;23;20451;-83
2022/03/04 01:06:20;;;;;;;14.40;10.80;;;6.80;57.30;;;;;;6133395;23;20416;-85
2022/03/04 01:08:47;;;;;;;14.13;11.47;;;6.70;57.50;;;;;;6131869;23;20436;-83
2022/03/04 01:11:40;;;;;;;14.47;10.70;;;6.60;57.70;;;;;;6108775;23;20410;-85
2022/03/04 01:14:27;;;;;;;15.10;11.83;;;6.60;58.20;;;;;;6109424;23;20438;-83
2022/03/04 01:17:08;;;;;;;16.53;11.30;;;6.50;58.50;;;;;;6106356;23;20803;-84
2022/03/04 01:19:38;;;;;;;17.03;10.83;;;6.40;58.70;;;;;;6131845;23;20443;-84
2022/03/04 01:22:13;;;;;;;16.03;12.17;;;6.50;59.00;;;;;;6112252;23;20446;-83
2022/03/04 01:24:42;;;;;;;14.67;10.37;;;6.40;59.10;;;;;;6136868;23;20443;-83
2022/03/04 01:27:17;;;;;;;16.37;11.33;;;6.50;58.70;;;;;;6110981;23;20484;-80
2022/03/04 01:29:51;;;;;;;15.83;11.83;;;6.50;58.30;;;;;;6111167;23;20432;-83
2022/03/04 01:32:22;;;;;;;15.33;10.77;;;6.40;58.40;;;;;;6107142;23;20446;-83
2022/03/04 01:35:09;;;;;;;17.87;11.40;;;6.40;59.00;;;;;;6110834;23;20411;-83
2022/03/04 01:37:40;;;;;;;11.83;10.60;;;6.40;59.10;;;;;;6108933;23;20387;-83
2022/03/04 01:40:16;;;;;;;13.87;10.73;;;6.40;59.30;;;;;;6108392;23;20462;-83
2022/03/04 01:43:05;;;;;;;16.20;10.20;;;6.20;59.40;;;;;;6108057;23;20411;-84
2022/03/04 01:45:39;;;;;;;14.80;12.07;;;6.10;59.80;;;;;;6110326;23;20467;-84
2022/03/04 01:48:06;;;;;;;12.67;10.40;;;6.00;60.50;;;;;;6103191;23;20415;-80
2022/03/04 01:50:57;;;;;;;12.90;10.27;;;5.90;61.00;;;;;;6112315;23;20498;-83
2022/03/04 01:53:34;;;;;;;13.80;10.37;;;6.20;61.00;;;;;;6106913;23;20435;-82
2022/03/04 01:56:01;;;;;;;16.53;11.30;;;6.30;60.20;;;;;;6133562;23;20426;-84
2022/03/04 01:58:28;;;;;;;15.60;10.50;;;6.30;59.80;;;;;;6105489;23;20431;-83
2022/03/04 02:00:55;;;;;;;14.50;9.97;;;6.20;60.20;;;;;;6109702;23;20918;-84
2022/03/04 02:03:24;;;;;;;15.73;11.43;;;6.30;60.00;;;;;;6134776;23;20412;-84
2022/03/04 02:05:52;;;;;;;14.80;10.60;;;6.20;59.80;;;;;;6110026;23;20543;-83
2022/03/04 02:08:22;;;;;;;14.50;10.80;;;6.20;60.00;;;;;;6104378;23;20511;-85
2022/03/04 02:11:25;;;;;;;13.97;11.10;;;6.10;60.00;;;;;;6091848;23;20399;-82
2022/03/04 02:14:50;;;;;;;15.90;12.23;;;6.00;60.30;;;;;;6110566;23;20403;-83
2022/03/04 02:20:35;;;;;;;16.40;11.27;;;6.00;61.00;;;;;;6132689;23;20450;-82
2022/03/04 02:23:21;;;;;;;18.33;12.37;;;6.10;62.20;;;;;;6110115;23;20420;-82
2022/03/04 02:26:28;;;;;;;14.60;11.20;;;6.00;62.40;;;;;;6104930;23;20406;-84
2022/03/04 02:29:41;;;;;;;15.27;10.77;;;6.10;62.90;;;;;;6102673;23;20447;-84
2022/03/04 02:32:40;;;;;;;13.90;10.67;;;6.10;63.20;;;;;;6015988;23;20407;-85
2022/03/04 02:35:35;;;;;;;15.23;12.00;;;6.10;63.40;;;;;;6019796;23;20471;-84
2022/03/04 02:38:09;;;;;;;16.83;12.03;;;6.00;63.90;;;;;;6016859;23;20415;-84
2022/03/04 02:40:39;;;;;;;15.30;10.80;;;6.00;64.40;;;;;;6039669;23;20773;-84
2022/03/04 02:43:13;;;;;;;15.10;11.90;;;5.90;64.80;;;;;;6040717;23;20479;-83
2022/03/04 02:46:18;;;;;;;14.53;11.03;;;5.90;65.30;;;;;;6018598;23;20450;-83
2022/03/04 02:48:49;;;;;;;15.73;12.53;;;5.90;65.80;;;;;;6015648;23;20519;-84
2022/03/04 02:51:51;;;;;;;18.47;11.90;;;5.90;66.30;;;;;;6041142;23;20532;-83
2022/03/04 02:54:27;;;;;;;15.67;10.93;;;6.00;66.70;;;;;;5960694;24;20458;-85
2022/03/04 02:57:06;;;;;;;17.00;12.70;;;6.00;66.60;;;;;;6015388;23;20415;-84
2022/03/04 02:59:45;;;;;;;14.60;10.90;;;6.10;66.60;;;;;;6016126;23;20759;-84
2022/03/04 03:02:28;;;;;;;17.37;13.17;;;6.20;66.00;;;;;;6017048;23;20953;-86
2022/03/04 03:04:57;;;;;;;17.60;12.67;;;6.20;65.20;;;;;;6128890;23;20530;-85
2022/03/04 03:07:47;;;;;;;14.40;11.40;;;6.00;65.30;;;;;;6102560;23;20903;-83
2022/03/04 03:10:40;;;;;;;15.57;10.70;;;6.00;65.50;;;;;;6100602;23;20472;-84
2022/03/04 03:13:07;;;;;;;17.47;11.57;;;5.80;66.30;;;;;;6132032;23;20416;-82
2022/03/04 03:15:37;;;;;;;15.20;11.00;;;5.70;67.10;;;;;;6125870;23;20396;-83
2022/03/04 03:18:34;;;;;;;15.67;11.73;;;5.70;67.30;;;;;;6102305;23;20500;-82
2022/03/04 03:21:12;;;;;;;17.20;11.93;;;5.70;66.60;;;;;;6128402;23;20502;-83
2022/03/04 03:23:51;;;;;;;14.93;11.80;;;5.90;65.20;;;;;;6105982;23;20421;-85
2022/03/04 03:26:18;;;;;;;13.20;11.20;;;5.80;64.50;;;;;;6130241;23;20435;-83
2022/03/04 03:28:44;;;;;;;17.13;10.47;;;5.70;64.80;;;;;;6106519;23;20452;-83
2022/03/04 03:31:20;;;;;;;17.30;12.33;;;5.80;65.10;;;;;;6140154;23;20422;-82
2022/03/04 03:33:53;;;;;;;14.47;11.60;;;5.70;65.10;;;;;;6115069;23;20415;-82
2022/03/04 03:36:39;;;;;;;15.33;10.90;;;5.70;65.60;;;;;;6117085;23;20400;-82
2022/03/04 03:39:08;;;;;;;17.57;12.00;;;5.60;65.60;;;;;;6109135;23;20819;-83
2022/03/04 03:41:47;;;;;;;16.53;11.67;;;5.70;66.50;;;;;;6132722;23;20435;-84
2022/03/04 03:44:29;;;;;;;17.00;12.63;;;5.80;66.40;;;;;;6106804;23;20420;-81
2022/03/04 03:47:23;;;;;;;17.40;12.10;;;5.80;65.80;;;;;;6105469;23;21228;-82
2022/03/04 03:49:57;;;;;;;16.63;11.73;;;5.70;65.80;;;;;;6103455;23;20782;-83
2022/03/04 03:52:24;;;;;;;18.53;11.87;;;5.50;65.80;;;;;;6129757;23;20414;-83
2022/03/04 03:54:51;;;;;;;14.50;12.03;;;5.40;66.50;;;;;;6130020;23;20404;-84
2022/03/04 03:57:24;;;;;;;16.27;12.03;;;5.20;66.80;;;;;;6128519;23;20424;-81
2022/03/04 04:00:19;;;;;;;13.40;10.27;;;5.30;67.50;;;;;;6129764;23;20535;-83
2022/03/04 04:03:00;;;;;;;16.60;11.57;;;5.30;67.30;;;;;;6087709;23;20416;-85
2022/03/04 04:05:38;;;;;;;15.53;11.83;;;5.40;67.30;;;;;;6106107;23;20451;-83
2022/03/04 04:08:20;;;;;;;17.13;12.10;;;5.40;67.60;;;;;;6107941;23;20494;-83
2022/03/04 04:11:36;;;;;;;15.67;11.60;;;5.60;67.60;;;;;;6093510;23;20455;-84
2022/03/04 04:14:37;;;;;;;15.70;11.70;;;5.40;67.50;;;;;;6101408;23;20415;-82
2022/03/04 04:17:24;;;;;;;15.13;12.23;;;5.40;68.10;;;;;;6109559;23;20407;-84
2022/03/04 04:30:06;;;;;;;15.77;10.80;;;5.20;67.80;;;;;;6094739;23;20436;-86
2022/03/04 04:33:24;;;;;;;;;;;;;;;;;;;;;
2022/03/04 04:41:07;;;;;;;;;;;;;;;;;;;;;
2022/03/04 04:44:40;;;;;;;16.17;11.60;;;5.30;68.40;;;;;;6025479;23;20391;-86
2022/03/04 04:48:01;;;;;;;;;;;;;;;;;;;;;
2022/03/04 04:51:40;;;;;;;17.67;11.80;;;5.40;68.30;;;;;;6046493;23;20443;-85
2022/03/04 04:58:19;;;;;;;;;;;;;;;;;;;;;
2022/03/04 05:12:54;;;;;;;16.00;11.70;;;5.00;71.40;;;;;;6093714;23;20955;-84
2022/03/04 05:39:28;;;;;;;;;;;;;;;;;;;;;
2022/03/04 05:43:29;;;;;;;17.80;11.83;;;4.90;73.30;;;;;;5849946;24;20432;-86
2022/03/04 05:46:39;;;;;;;18.27;11.67;;;4.70;73.20;;;;;;5863354;24;20474;-85
2022/03/04 05:50:18;;;;;;;20.30;11.43;;;4.70;73.50;;;;;;5819302;24;20442;-85
2022/03/04 06:01:29;;;;;;;17.63;12.00;;;4.60;74.10;;;;;;5831167;24;20402;-86
2022/03/04 06:04:36;;;;;;;15.70;11.10;;;4.40;74.80;;;;;;5777985;24;20403;-84
2022/03/04 06:08:40;;;;;;;;;;;;;;;;;;;;;
2022/03/04 06:11:45;;;;;;;29.30;14.87;;;4.40;75.70;;;;;;5747754;24;20803;-84
2022/03/04 06:21:59;;;;;;;17.37;11.40;;;4.80;76.30;;;;;;5987189;23;20403;-85
2022/03/04 06:29:41;;;;;;;15.17;11.83;;;4.90;76.20;;;;;;5974178;24;20407;-84
2022/03/04 06:33:35;;;;;;;22.87;13.00;;;4.70;76.30;;;;;;5943310;24;20471;-85
2022/03/04 06:40:49;;;;;;;23.03;11.60;;;4.30;78.10;;;;;;5939174;24;20444;-85
2022/03/04 06:44:05;;;;;;;17.03;12.17;;;4.40;79.00;;;;;;5888278;23;20411;-85
2022/03/04 06:51:05;;;;;;;18.60;11.63;;;4.40;79.30;;;;;;6109511;23;20376;-84
2022/03/04 06:58:11;;;;;;;16.43;11.20;;;4.20;81.30;;;;;;6078971;23;20388;-84
2022/03/04 07:01:24;;;;;;;18.77;12.17;;;4.30;81.70;;;;;;6079550;23;20434;-86
2022/03/04 07:08:33;;;;;;;16.27;10.73;;;4.40;81.00;;;;;;5969219;23;20413;-85
2022/03/04 07:11:39;;;;;;;20.33;12.17;;;4.40;80.80;;;;;;5996507;23;20804;-85
2022/03/04 07:15:14;;;;;;;;;;;;;;;;;;;;;
2022/03/04 07:19:07;;;;;;;20.70;12.90;;;4.40;80.60;;;;;;6025205;23;20450;-85
2022/03/04 07:22:26;;;;;;;20.27;13.40;;;4.40;80.50;;;;;;6028275;23;20412;-85
2022/03/04 07:26:16;;;;;;;18.33;11.20;;;4.40;80.60;;;;;;6026993;23;20478;-83
2022/03/04 07:44:47;;;;;;;;;;;;;;;;;;;;;
2022/03/04 07:55:50;;;;;;;16.70;11.40;;;14.40;45.60;;;;;;6106464;23;20399;-82
2022/03/04 08:10:48;;;;;;;18.80;12.67;;;7.30;60.20;;;;;;6000695;24;20416;-86
2022/03/04 08:14:02;;;;;;;16.23;11.00;;;8.30;60.50;;;;;;5997147;24;20402;-82
2022/03/04 08:34:49;;;;;;;;;;;;;;;;;;;;;
2022/03/04 08:53:27;;;;;;;;;;;;;;;;;;;;;
2022/03/04 08:57:06;;;;;;;;;;;;;;;;;;;;;
2022/03/04 09:16:09;;;;;;;;;;;;;;;;;;;;;
2022/03/04 10:34:11;;;;;;;23.40;16.73;;;10.90;49.50;;;;;;6122759;23;20483;-85
2022/03/04 10:36:55;;;;;;;27.33;18.60;;;10.90;49.80;;;;;;6130223;23;20408;-84
2022/03/04 10:39:22;;;;;;;28.97;17.80;;;10.90;50.50;;;;;;6127925;23;20392;-85
2022/03/04 10:41:49;;;;;;;25.90;19.33;;;10.90;50.90;;;;;;6129539;23;20410;-84
2022/03/04 10:44:26;;;;;;;26.27;18.73;;;10.70;50.90;;;;;;6131422;23;20434;-82
2022/03/04 10:46:54;;;;;;;25.63;18.43;;;10.30;51.30;;;;;;6129244;23;20758;-84
2022/03/04 10:49:25;;;;;;;25.37;19.07;;;10.10;51.90;;;;;;6128431;23;20412;-84
2022/03/04 10:52:05;;;;;;;24.83;18.43;;;10.20;52.20;;;;;;6128632;23;20487;-85
2022/03/04 10:54:32;;;;;;;21.40;15.87;;;10.20;52.20;;;;;;6130798;23;20491;-83
2022/03/04 10:57:03;;;;;;;23.87;18.07;;;10.30;51.70;;;;;;6134999;23;20429;-84
2022/03/04 10:59:30;;;;;;;24.43;18.13;;;10.20;51.80;;;;;;6132637;23;20392;-84
2022/03/04 11:01:56;;;;;;;27.47;18.60;;;10.20;51.90;;;;;;6134018;23;20416;-82
2022/03/04 11:04:23;;;;;;;22.90;18.93;;;10.20;52.00;;;;;;6106062;23;20744;-82
2022/03/04 11:06:50;;;;;;;27.07;18.63;;;10.00;51.90;;;;;;6106183;23;20787;-81
2022/03/04 11:09:24;;;;;;;21.30;17.20;;;9.80;53.50;;;;;;6131779;23;20755;-82
2022/03/04 11:11:52;;;;;;;25.53;19.53;;;10.00;52.60;;;;;;6108734;23;20500;-83
2022/03/04 11:14:21;;;;;;;29.50;18.63;;;9.70;53.30;;;;;;6129013;23;20499;-82
2022/03/04 11:16:49;;;;;;;25.63;18.30;;;9.80;54.10;;;;;;6129523;23;20415;-83
2022/03/04 11:19:17;;;;;;;21.33;16.90;;;10.20;52.60;;;;;;6133121;23;20463;-83
2022/03/04 11:21:44;;;;;;;23.57;16.90;;;10.00;52.20;;;;;;6112042;23;20419;-83
2022/03/04 11:24:11;;;;;;;23.37;17.90;;;10.10;52.40;;;;;;6113938;23;20527;-83
2022/03/04 11:26:42;;;;;;;23.30;17.63;;;10.20;52.00;;;;;;6134515;23;20447;-83
2022/03/04 11:29:34;;;;;;;29.13;17.60;;;10.20;52.10;;;;;;6129522;23;20525;-84
2022/03/04 11:32:03;;;;;;;25.67;19.50;;;10.40;51.60;;;;;;6104989;23;20396;-83
2022/03/04 11:34:41;;;;;;;24.13;18.00;;;10.10;51.80;;;;;;6130761;23;20435;-83
2022/03/04 11:37:20;;;;;;;23.07;16.87;;;9.90;53.40;;;;;;6131072;23;20918;-82
2022/03/04 11:42:58;;;;;;;25.70;17.97;;;10.00;52.30;;;;;;6132158;23;20443;-85
2022/03/04 11:45:33;;;;;;;26.87;18.53;;;10.00;53.00;;;;;;6107537;23;20447;-84
2022/03/04 11:48:08;;;;;;;25.77;18.30;;;10.40;52.10;;;;;;6124581;23;20447;-83
2022/03/04 11:50:58;;;;;;;26.47;19.20;;;10.40;51.40;;;;;;6122595;23;20483;-84
2022/03/04 11:53:25;;;;;;;25.23;18.83;;;10.50;51.60;;;;;;6122028;23;20446;-84
2022/03/04 11:56:15;;;;;;;27.20;18.77;;;10.50;51.60;;;;;;6123121;23;20499;-85
2022/03/04 11:58:54;;;;;;;22.60;16.77;;;10.30;51.90;;;;;;6118509;23;20427;-87
2022/03/04 12:01:26;;;;;;;26.33;18.20;;;10.40;52.50;;;;;;6119320;23;20476;-85
2022/03/04 12:04:14;;;;;;;22.07;16.90;;;10.50;52.00;;;;;;6098542;23;20436;-83
2022/03/04 12:06:42;;;;;;;26.20;17.53;;;10.80;51.40;;;;;;6131162;23;20467;-83
2022/03/04 12:09:29;;;;;;;23.63;16.63;;;10.90;51.40;;;;;;6128912;23;20408;-84
2022/03/04 12:12:12;;;;;;;22.20;16.40;;;11.00;51.00;;;;;;6128080;23;20415;-84
2022/03/04 12:14:49;;;;;;;21.23;16.60;;;10.70;50.80;;;;;;6120183;23;20479;-85
2022/03/04 12:17:17;;;;;;;25.57;19.37;;;10.90;50.60;;;;;;6098708;23;20420;-86
2022/03/04 12:19:45;;;;;;;23.40;15.90;;;11.10;49.60;;;;;;6122040;23;20407;-85
2022/03/04 12:22:13;;;;;;;22.90;17.23;;;11.00;49.70;;;;;;6119485;23;20805;-85
2022/03/04 12:24:53;;;;;;;21.30;16.83;;;11.20;49.40;;;;;;6117703;23;20754;-85
2022/03/04 12:27:35;;;;;;;22.23;17.37;;;11.00;49.60;;;;;;6116948;23;20998;-83
2022/03/04 12:30:22;;;;;;;24.47;17.50;;;11.30;49.60;;;;;;6091767;23;21247;-83
2022/03/04 12:32:53;;;;;;;22.00;17.10;;;11.60;48.00;;;;;;6115760;23;20498;-84
2022/03/04 12:35:22;;;;;;;21.23;15.47;;;11.70;48.90;;;;;;6118402;23;20528;-84
2022/03/04 12:37:49;;;;;;;19.50;15.53;;;11.80;47.00;;;;;;6118615;23;20419;-85
2022/03/04 12:40:17;;;;;;;18.80;14.27;;;11.80;46.50;;;;;;6124458;23;20396;-82
2022/03/04 12:42:53;;;;;;;21.00;13.87;;;11.90;45.20;;;;;;6120048;23;20545;-82
2022/03/04 12:45:24;;;;;;;18.27;14.03;;;11.70;44.80;;;;;;6102108;23;20463;-82
2022/03/04 12:47:53;;;;;;;19.87;14.90;;;11.60;45.60;;;;;;6122673;23;20419;-85
2022/03/04 12:50:28;;;;;;;20.73;15.27;;;12.10;45.70;;;;;;6095365;23;20422;-84
2022/03/04 12:52:54;;;;;;;20.47;16.03;;;12.90;44.90;;;;;;6128092;23;20457;-84
2022/03/04 12:55:21;;;;;;;21.10;16.33;;;12.90;44.50;;;;;;6125375;23;20407;-84
2022/03/04 12:57:51;;;;;;;21.57;17.00;;;13.30;44.60;;;;;;6126902;23;20419;-84
2022/03/04 13:00:18;;;;;;;25.20;16.47;;;13.90;43.30;;;;;;6127778;23;20412;-84
2022/03/04 13:02:45;;;;;;;19.40;15.40;;;14.10;42.50;;;;;;6113493;23;20462;-85
2022/03/04 13:05:12;;;;;;;19.27;15.47;;;14.40;42.40;;;;;;6135767;23;20456;-84
2022/03/04 13:07:38;;;;;;;16.23;14.53;;;14.70;40.50;;;;;;6125095;23;20418;-85
2022/03/04 13:10:06;;;;;;;20.57;16.27;;;15.40;38.50;;;;;;6137860;23;20408;-84
2022/03/04 13:12:33;;;;;;;21.10;17.07;;;15.20;37.50;;;;;;6115468;23;20427;-85
2022/03/04 13:15:11;;;;;;;19.40;16.40;;;15.70;38.50;;;;;;6132018;23;20935;-83
2022/03/04 13:17:38;;;;;;;20.60;16.30;;;15.50;37.70;;;;;;6122112;23;20411;-84
2022/03/04 13:20:06;;;;;;;19.17;15.37;;;16.00;37.00;;;;;;6095574;23;20929;-84
2022/03/04 13:22:33;;;;;;;22.13;15.80;;;15.90;36.70;;;;;;6124290;23;20445;-84
2022/03/04 13:25:01;;;;;;;20.30;16.30;;;15.30;36.70;;;;;;6100408;23;20419;-84
2022/03/04 13:27:37;;;;;;;21.70;17.30;;;16.10;36.10;;;;;;6130103;23;20439;-85
2022/03/04 13:30:04;;;;;;;20.60;16.60;;;16.10;36.40;;;;;;6129544;23;20413;-83
2022/03/04 13:32:31;;;;;;;19.80;16.00;;;16.00;36.40;;;;;;6130181;23;20447;-83
2022/03/04 13:34:59;;;;;;;18.63;15.23;;;15.60;36.60;;;;;;6130187;23;20395;-85
2022/03/04 13:37:40;;;;;;;20.27;17.07;;;16.00;36.30;;;;;;6129169;23;20412;-85
2022/03/04 13:40:13;;;;;;;17.53;14.20;;;16.60;35.00;;;;;;6119616;23;20406;-83
2022/03/04 13:42:44;;;;;;;15.23;13.50;;;17.00;34.10;;;;;;6116995;23;20443;-84
2022/03/04 13:45:12;;;;;;;16.17;13.80;;;17.10;33.40;;;;;;6120337;23;20392;-84
2022/03/04 13:47:41;;;;;;;19.67;16.50;;;16.70;33.40;;;;;;6133243;23;20443;-85
2022/03/04 13:50:16;;;;;;;16.57;14.30;;;17.10;33.20;;;;;;6134168;23;20826;-85
2022/03/04 13:53:08;;;;;;;15.93;14.23;;;16.80;32.70;;;;;;6096182;23;21356;-84
2022/03/04 13:55:42;;;;;;;16.97;14.00;;;16.20;33.20;;;;;;6103672;23;20458;-83
2022/03/04 13:58:15;;;;;;;18.30;14.60;;;16.80;33.00;;;;;;6118001;23;20838;-83
2022/03/04 14:00:43;;;;;;;17.60;14.40;;;16.40;33.30;;;;;;6123737;23;20410;-84
2022/03/04 14:03:12;;;;;;;20.47;15.27;;;16.80;32.70;;;;;;6117549;23;20447;-83
2022/03/04 14:05:44;;;;;;;20.20;16.47;;;16.70;33.20;;;;;;6119693;23;20450;-82
2022/03/04 14:08:19;;;;;;;19.57;15.47;;;16.20;33.60;;;;;;6128158;23;20403;-84
2022/03/04 14:10:48;;;;;;;19.27;15.00;;;15.80;34.00;;;;;;6129658;23;20468;-83
2022/03/04 14:13:17;;;;;;;16.90;15.10;;;15.60;34.10;;;;;;6116957;23;21006;-83
2022/03/04 14:15:46;;;;;;;18.83;15.53;;;15.00;34.50;;;;;;6121159;23;20408;-83
2022/03/04 14:18:15;;;;;;;20.23;15.53;;;14.40;35.30;;;;;;6136791;23;20407;-82
2022/03/04 14:20:44;;;;;;;18.47;15.00;;;14.10;35.90;;;;;;6112597;23;20420;-82
2022/03/04 14:25:53;;;;;;;17.43;12.93;;;14.10;36.20;;;;;;6133533;23;20496;-84
2022/03/04 14:28:27;;;;;;;17.50;13.60;;;14.00;36.10;;;;;;6130365;23;20716;-84
2022/03/04 14:30:55;;;;;;;18.70;15.20;;;13.60;36.20;;;;;;6132394;23;20400;-84
2022/03/04 14:33:23;;;;;;;18.20;14.40;;;13.20;36.50;;;;;;6099627;23;20471;-83
2022/03/04 14:35:51;;;;;;;20.57;15.27;;;13.20;36.80;;;;;;6098883;23;20444;-84
2022/03/04 14:38:19;;;;;;;19.20;15.57;;;13.20;36.90;;;;;;6098622;23;20412;-83
2022/03/04 14:40:46;;;;;;;17.13;13.67;;;13.20;37.00;;;;;;6099273;23;20404;-84
2022/03/04 14:43:15;;;;;;;16.23;12.40;;;13.10;37.20;;;;;;6074931;23;20432;-84
2022/03/04 14:45:41;;;;;;;21.07;13.80;;;13.40;36.90;;;;;;6074527;23;20413;-83
2022/03/04 14:48:09;;;;;;;17.00;12.60;;;13.30;36.60;;;;;;6103007;23;20432;-83
2022/03/04 14:50:38;;;;;;;15.50;11.40;;;13.10;36.50;;;;;;6105507;23;20427;-85
2022/03/04 14:53:05;;;;;;;15.60;13.67;;;12.80;36.50;;;;;;6101278;23;20436;-84
2022/03/04 14:55:34;;;;;;;15.60;11.70;;;12.80;37.00;;;;;;6102756;23;20927;-84
2022/03/04 14:58:04;;;;;;;16.97;13.43;;;13.00;37.00;;;;;;6101888;23;20408;-85
2022/03/04 15:00:31;;;;;;;16.50;12.73;;;13.10;36.90;;;;;;6100833;23;20413;-84
2022/03/04 15:02:58;;;;;;;15.40;12.70;;;13.20;36.90;;;;;;6091379;23;20440;-84
2022/03/04 15:05:25;;;;;;;17.80;12.53;;;13.00;36.90;;;;;;6066924;23;20475;-84
2022/03/04 15:07:53;;;;;;;18.10;12.93;;;12.90;37.10;;;;;;6068871;23;20448;-84
2022/03/04 15:10:21;;;;;;;14.33;12.00;;;13.10;37.10;;;;;;6094377;23;20908;-84
2022/03/04 15:12:51;;;;;;;17.03;13.37;;;13.40;37.30;;;;;;6105389;23;20440;-84
2022/03/04 15:15:18;;;;;;;16.50;13.23;;;13.40;38.10;;;;;;6110288;23;20415;-85
2022/03/04 15:17:45;;;;;;;21.17;14.00;;;13.10;37.30;;;;;;6111270;23;20412;-84
2022/03/04 15:20:13;;;;;;;18.40;13.27;;;12.90;37.60;;;;;;6111606;23;20487;-83
2022/03/04 15:22:40;;;;;;;22.67;13.90;;;12.70;37.70;;;;;;6085038;23;20440;-82
2022/03/04 15:25:07;;;;;;;17.63;13.60;;;12.90;37.70;;;;;;6112347;23;20503;-82
2022/03/04 15:27:34;;;;;;;16.60;12.40;;;13.10;37.20;;;;;;6109437;23;20587;-83
2022/03/04 15:30:03;;;;;;;18.50;13.07;;;13.10;36.90;;;;;;6076906;23;20487;-82
2022/03/04 15:32:31;;;;;;;16.97;13.43;;;13.00;37.10;;;;;;6082049;23;20467;-83
2022/03/04 15:34:57;;;;;;;18.80;13.90;;;12.70;37.30;;;;;;6105479;23;20412;-82
2022/03/04 15:37:24;;;;;;;20.40;13.30;;;12.50;37.70;;;;;;6102481;23;20435;-83
2022/03/04 15:39:51;;;;;;;17.67;13.23;;;12.60;38.00;;;;;;6077270;23;20452;-82
2022/03/04 15:42:19;;;;;;;16.50;13.43;;;13.00;38.00;;;;;;6103162;23;20412;-83
2022/03/04 15:44:46;;;;;;;15.27;11.80;;;13.10;37.60;;;;;;6078026;23;20413;-82
2022/03/04 15:47:14;;;;;;;16.90;13.83;;;13.00;37.20;;;;;;6102587;23;20425;-84
2022/03/04 15:49:42;;;;;;;17.50;12.70;;;12.70;37.30;;;;;;6077605;23;20404;-82
2022/03/04 15:52:09;;;;;;;15.40;11.93;;;12.90;37.30;;;;;;6078737;23;20412;-82
2022/03/04 15:54:35;;;;;;;15.97;12.37;;;12.80;37.40;;;;;;6103702;23;20419;-83
2022/03/04 15:57:03;;;;;;;19.07;12.17;;;13.10;37.20;;;;;;6102555;23;20999;-83
2022/03/04 15:59:30;;;;;;;13.67;10.60;;;13.30;37.30;;;;;;6099375;23;21146;-85
2022/03/04 16:01:56;;;;;;;15.43;11.70;;;13.30;36.40;;;;;;6068133;23;20495;-84
2022/03/04 16:04:23;;;;;;;16.30;12.27;;;13.20;36.30;;;;;;6085256;23;20441;-85
2022/03/04 16:06:50;;;;;;;15.80;12.37;;;13.10;36.70;;;;;;6090453;23;20516;-85
2022/03/04 16:09:18;;;;;;;16.27;12.07;;;13.20;36.70;;;;;;6066955;23;20409;-85
2022/03/04 16:11:45;;;;;;;16.70;12.80;;;13.30;36.70;;;;;;6091186;23;21019;-83
2022/03/04 16:14:12;;;;;;;17.43;11.13;;;13.40;36.50;;;;;;6101987;23;20429;-84
2022/03/04 16:16:39;;;;;;;16.70;13.60;;;13.50;36.40;;;;;;6095769;23;20429;-85
2022/03/04 16:19:06;;;;;;;15.37;11.93;;;13.60;36.60;;;;;;6096059;23;20743;-85
2022/03/04 16:21:33;;;;;;;14.27;10.27;;;13.70;36.40;;;;;;6103047;23;20423;-84
2022/03/04 16:24:00;;;;;;;14.67;11.70;;;13.60;36.40;;;;;;6097762;23;20504;-84
2022/03/04 16:26:32;;;;;;;16.20;11.73;;;13.30;36.20;;;;;;6074553;23;20443;-85
2022/03/04 16:29:01;;;;;;;15.00;11.70;;;13.40;36.40;;;;;;6097347;23;20436;-84
2022/03/04 16:31:28;;;;;;;18.03;12.20;;;13.50;36.40;;;;;;6097118;23;20417;-85
2022/03/04 16:33:55;;;;;;;14.83;11.40;;;13.50;36.20;;;;;;6097861;23;20425;-85
2022/03/04 16:36:22;;;;;;;15.57;12.10;;;13.60;36.70;;;;;;6101551;23;20405;-84
2022/03/04 16:38:49;;;;;;;18.03;12.00;;;13.50;36.90;;;;;;6081357;23;20408;-85
2022/03/04 16:41:16;;;;;;;16.07;13.63;;;13.40;36.90;;;;;;6118447;23;20417;-86
2022/03/04 16:43:43;;;;;;;14.67;11.93;;;13.20;37.40;;;;;;6118858;23;20467;-86
2022/03/04 16:46:14;;;;;;;15.47;12.17;;;12.90;37.70;;;;;;6112928;23;20417;-86
2022/03/04 16:49:01;;;;;;;16.80;11.73;;;12.70;38.00;;;;;;6116390;23;20416;-86
2022/03/04 16:51:27;;;;;;;17.07;13.50;;;12.80;38.10;;;;;;6113652;23;20413;-85
2022/03/04 16:53:55;;;;;;;16.27;13.17;;;12.70;37.90;;;;;;6102942;23;20464;-83
2022/03/04 16:56:22;;;;;;;17.93;13.10;;;12.50;38.10;;;;;;6075208;23;20400;-83
2022/03/04 16:58:48;;;;;;;25.50;12.53;;;12.50;38.10;;;;;;6098856;23;20905;-82
2022/03/04 17:01:15;;;;;;;16.73;12.07;;;12.60;38.20;;;;;;6100609;23;20412;-83
2022/03/04 17:03:42;;;;;;;17.63;13.57;;;12.60;38.10;;;;;;6088947;23;20439;-83
2022/03/04 17:06:09;;;;;;;18.40;13.93;;;12.40;38.10;;;;;;6063147;23;20401;-85
2022/03/04 17:08:35;;;;;;;18.10;15.00;;;12.50;38.40;;;;;;6083994;23;20413;-84
2022/03/04 17:11:02;;;;;;;19.07;13.80;;;12.40;38.40;;;;;;6086258;23;20406;-85
2022/03/04 17:13:29;;;;;;;14.40;12.63;;;12.40;38.50;;;;;;6090636;23;20812;-84
2022/03/04 17:15:55;;;;;;;15.77;12.40;;;12.50;38.30;;;;;;6096547;23;20472;-83
2022/03/04 17:18:23;;;;;;;17.30;12.43;;;12.50;38.10;;;;;;6096810;23;20467;-84
2022/03/04 17:20:50;;;;;;;24.20;12.70;;;12.60;38.10;;;;;;6097056;23;20412;-84
2022/03/04 17:23:17;;;;;;;15.60;12.97;;;12.50;38.10;;;;;;6072219;23;20837;-84
2022/03/04 17:25:45;;;;;;;18.00;12.90;;;12.60;38.30;;;;;;6096914;23;20428;-84
2022/03/04 17:28:14;;;;;;;14.90;12.00;;;12.50;38.30;;;;;;6096109;23;20456;-84
2022/03/04 17:30:41;;;;;;;16.63;12.33;;;12.40;38.60;;;;;;6080558;23;20419;-85
2022/03/04 17:33:12;;;;;;;17.63;13.40;;;12.30;38.80;;;;;;6099564;23;20432;-84
2022/03/04 17:35:40;;;;;;;17.73;13.37;;;12.20;38.90;;;;;;6093561;23;20451;-84
2022/03/04 17:38:07;;;;;;;20.03;14.27;;;12.10;39.30;;;;;;6096679;23;20447;-84
2022/03/04 17:40:34;;;;;;;18.90;13.67;;;12.20;39.50;;;;;;6071136;23;20416;-84
2022/03/04 17:43:02;;;;;;;19.20;14.70;;;12.00;39.70;;;;;;6095909;23;20444;-84
2022/03/04 17:45:29;;;;;;;17.97;13.80;;;11.90;40.00;;;;;;6099097;23;20419;-84
2022/03/04 17:47:56;;;;;;;18.30;15.07;;;11.80;40.40;;;;;;6099320;23;20444;-84
2022/03/04 17:50:23;;;;;;;17.03;13.73;;;11.90;40.50;;;;;;6100021;23;20412;-84
2022/03/04 17:52:49;;;;;;;19.93;14.87;;;12.00;40.20;;;;;;6096829;23;20428;-85
2022/03/04 17:55:16;;;;;;;23.13;14.27;;;11.80;40.20;;;;;;6097028;23;20487;-85
2022/03/04 17:57:43;;;;;;;20.67;15.17;;;11.60;41.10;;;;;;6098659;23;20417;-84
2022/03/04 18:00:10;;;;;;;18.90;14.93;;;11.70;42.70;;;;;;6098086;23;20416;-84
2022/03/04 18:02:41;;;;;;;16.43;12.00;;;11.60;43.40;;;;;;6102038;23;20440;-84